Terminal Aerodrome Forecast
Issued by NWS Topeka, KS

Home | Current Version | Previous Version | Text Only | Print | Product List | Glossary On
Versions: 1 2 3 4 5 6 7 8 9 10 11 12 13 14 15 16
277
FTUS43 KTOP 111245 AAB
TAFTOP
TAF AMD
KTOP 111245Z 1113/1212 02006KT P6SM SKC
     FM111400 05007KT P6SM BKN013
      TEMPO 1114/1115 BKN009
     FM111800 09006KT P6SM BKN022
     FM112000 14006KT P6SM SCT025 BKN150
     FM120900 32010G18KT P6SM SCT020=

USA.gov is the U.S. government's official web portal to all federal, state and local government web resources and services.